Time;durP1;ratioP1;P1;durP2;ratioP2;P2;SDS_P1;SDS_P2;PMS_P1;PMS_P2;Temp;Humidity;BMP_temperature;BMP_pressure;BME280_temperature;BME280_humidity;BME280_pressure;Samples;Min_cycle;Max_cycle;Signal;HPM_P1;HPM_P2
2022/08/22 00:02:00;;;;;;;7.10;5.00;;;;;;;;;;5065998;28;20495;-62
2022/08/22 00:04:36;;;;;;;4.72;4.32;;;;;;;;;;5032631;28;20213;-62
2022/08/22 00:07:24;;;;;;;6.50;4.47;;;;;;;;;;5062161;28;20208;-62
2022/08/22 00:10:06;;;;;;;5.68;4.55;;;;;;;;;;5062399;28;20238;-62
2022/08/22 00:12:42;;;;;;;5.72;4.35;;;;;;;;;;5066009;28;20196;-62
2022/08/22 00:15:12;;;;;;;8.17;4.43;;;;;;;;;;5067474;28;20200;-62
2022/08/22 00:18:21;;;;;;;6.43;4.32;;;;;;;;;;5066523;28;20756;-62
2022/08/22 00:20:52;;;;;;;5.32;4.22;;;;;;;;;;5061875;28;20582;-62
2022/08/22 00:23:37;;;;;;;4.67;4.27;;;;;;;;;;5057779;28;20327;-62
2022/08/22 00:26:24;;;;;;;6.17;4.27;;;;;;;;;;5062034;28;20299;-61
2022/08/22 00:28:55;;;;;;;6.90;4.53;;;;;;;;;;5053954;28;20208;-62
2022/08/22 00:31:30;;;;;;;6.35;4.20;;;;;;;;;;5065976;28;20227;-61
2022/08/22 00:33:59;;;;;;;6.38;4.60;;;;;;;;;;5063212;28;20209;-62
2022/08/22 00:36:44;;;;;;;5.07;3.87;;;;;;;;;;5059488;28;20204;-62
2022/08/22 00:39:33;;;;;;;5.27;4.43;;;;;;;;;;5059684;28;20201;-62
2022/08/22 00:42:07;;;;;;;5.30;4.27;;;;;;;;;;5062000;28;20204;-62
2022/08/22 00:44:47;;;;;;;4.63;4.17;;;;;;;;;;5057457;28;20212;-61
2022/08/22 00:47:26;;;;;;;5.23;4.10;;;;;;;;;;5054035;28;20662;-63
2022/08/22 00:50:12;;;;;;;5.07;4.20;;;;;;;;;;5049929;28;20749;-63
2022/08/22 00:52:49;;;;;;;6.20;4.10;;;;;;;;;;5078432;28;20209;-63
2022/08/22 00:55:45;;;;;;;5.70;4.77;;;;;;;;;;5065187;28;20216;-62
2022/08/22 00:58:32;;;;;;;5.05;4.50;;;;;;;;;;5046556;28;20224;-63
2022/08/22 01:01:02;;;;;;;8.30;4.60;;;;;;;;;;5078961;28;20743;-61
2022/08/22 01:03:39;;;;;;;5.20;4.33;;;;;;;;;;5057823;28;20613;-61
2022/08/22 01:06:24;;;;;;;5.93;4.67;;;;;;;;;;5059728;28;20208;-62
2022/08/22 01:09:18;;;;;;;4.53;4.17;;;;;;;;;;5060165;28;20196;-61
2022/08/22 01:12:01;;;;;;;5.00;4.50;;;;;;;;;;5075456;28;20629;-62
2022/08/22 01:14:47;;;;;;;5.53;4.93;;;;;;;;;;5064379;28;20270;-62
2022/08/22 01:17:26;;;;;;;5.67;4.57;;;;;;;;;;5079284;28;20234;-63
2022/08/22 01:20:03;;;;;;;6.03;4.67;;;;;;;;;;5061053;28;20325;-63
2022/08/22 01:22:50;;;;;;;5.77;4.57;;;;;;;;;;5065691;28;20678;-63
2022/08/22 01:25:36;;;;;;;5.25;4.75;;;;;;;;;;5075247;28;20197;-61
2022/08/22 01:28:10;;;;;;;5.00;4.50;;;;;;;;;;5058636;28;20757;-61
2022/08/22 01:30:57;;;;;;;8.57;4.53;;;;;;;;;;5058935;28;20774;-62
2022/08/22 01:33:48;;;;;;;6.47;4.73;;;;;;;;;;5062083;28;20205;-61
2022/08/22 01:36:16;;;;;;;6.63;4.63;;;;;;;;;;5078704;28;20205;-60
2022/08/22 01:38:49;;;;;;;7.27;4.70;;;;;;;;;;5059778;28;20277;-62
2022/08/22 01:41:21;;;;;;;5.70;4.67;;;;;;;;;;5060257;28;20224;-62
2022/08/22 01:43:54;;;;;;;5.07;4.40;;;;;;;;;;5057759;28;20213;-63
2022/08/22 01:46:36;;;;;;;4.60;4.20;;;;;;;;;;5063705;28;20668;-62
2022/08/22 01:49:08;;;;;;;4.57;4.07;;;;;;;;;;5063656;28;20204;-63
2022/08/22 01:51:44;;;;;;;5.83;4.50;;;;;;;;;;5057637;28;20228;-63
2022/08/22 01:54:21;;;;;;;5.40;3.90;;;;;;;;;;5054600;28;20200;-63
2022/08/22 01:56:48;;;;;;;6.50;4.57;;;;;;;;;;5052992;28;20208;-63
2022/08/22 01:59:29;;;;;;;7.37;4.80;;;;;;;;;;5060650;28;20658;-63
2022/08/22 02:02:19;;;;;;;4.43;4.03;;;;;;;;;;5065820;28;20287;-63
2022/08/22 02:04:55;;;;;;;4.87;4.47;;;;;;;;;;5066312;28;20202;-62
2022/08/22 02:07:25;;;;;;;5.23;4.33;;;;;;;;;;5079371;28;20215;-63
2022/08/22 02:10:05;;;;;;;4.57;4.17;;;;;;;;;;5059860;28;20216;-62
2022/08/22 02:12:41;;;;;;;6.43;3.97;;;;;;;;;;5049795;28;20751;-63
2022/08/22 02:15:25;;;;;;;6.27;4.30;;;;;;;;;;5077806;28;20216;-62
2022/08/22 02:18:04;;;;;;;6.60;3.50;;;;;;;;;;5055871;28;20225;-63
2022/08/22 02:20:35;;;;;;;4.30;3.90;;;;;;;;;;5065493;28;20226;-61
2022/08/22 02:23:21;;;;;;;4.43;3.77;;;;;;;;;;5064343;28;20303;-63
2022/08/22 02:25:52;;;;;;;4.10;3.70;;;;;;;;;;5080290;28;20225;-63
2022/08/22 02:28:38;;;;;;;4.35;4.00;;;;;;;;;;5056301;28;20213;-63
2022/08/22 02:31:24;;;;;;;4.70;4.30;;;;;;;;;;5070845;28;20225;-62
2022/08/22 02:33:55;;;;;;;4.85;4.43;;;;;;;;;;5056845;28;20213;-62
2022/08/22 02:36:39;;;;;;;5.78;3.95;;;;;;;;;;5057892;28;20193;-63
2022/08/22 02:39:12;;;;;;;4.27;3.97;;;;;;;;;;5057078;28;20659;-62
2022/08/22 02:41:55;;;;;;;5.57;3.93;;;;;;;;;;5053956;28;20223;-62
2022/08/22 02:44:29;;;;;;;4.10;3.80;;;;;;;;;;5066768;28;20220;-61
2022/08/22 02:46:59;;;;;;;8.67;4.23;;;;;;;;;;5058008;28;20214;-60
2022/08/22 02:49:35;;;;;;;5.00;4.20;;;;;;;;;;5072832;28;20658;-62
2022/08/22 02:52:28;;;;;;;4.43;4.03;;;;;;;;;;5078591;28;20209;-62
2022/08/22 02:55:08;;;;;;;4.50;4.10;;;;;;;;;;5058470;28;20202;-63
2022/08/22 02:57:51;;;;;;;6.33;4.10;;;;;;;;;;5042479;28;20228;-61
2022/08/22 03:00:22;;;;;;;4.23;3.83;;;;;;;;;;5061945;28;20789;-61
2022/08/22 03:02:59;;;;;;;6.93;4.47;;;;;;;;;;5067767;28;20297;-61
2022/08/22 03:05:28;;;;;;;4.40;4.00;;;;;;;;;;5063575;28;20197;-61
2022/08/22 03:08:04;;;;;;;5.67;4.23;;;;;;;;;;5061537;28;20665;-61
2022/08/22 03:10:45;;;;;;;4.40;4.00;;;;;;;;;;5062569;28;20731;-61
2022/08/22 03:13:15;;;;;;;5.53;4.17;;;;;;;;;;5064777;28;20215;-63
2022/08/22 03:15:54;;;;;;;4.53;4.10;;;;;;;;;;5052375;28;20254;-63
2022/08/22 03:18:32;;;;;;;5.07;4.40;;;;;;;;;;5065829;28;20232;-63
2022/08/22 03:21:12;;;;;;;3.87;3.47;;;;;;;;;;5080868;28;20217;-63
2022/08/22 03:23:54;;;;;;;4.67;4.23;;;;;;;;;;5062468;28;20654;-61
2022/08/22 03:26:27;;;;;;;6.27;4.17;;;;;;;;;;5081235;28;20220;-62
2022/08/22 03:29:03;;;;;;;4.40;3.87;;;;;;;;;;5061599;28;20211;-63
2022/08/22 03:31:31;;;;;;;4.67;4.20;;;;;;;;;;5060942;28;20622;-62
2022/08/22 03:34:20;;;;;;;5.20;4.47;;;;;;;;;;5056956;28;20206;-62
2022/08/22 03:36:58;;;;;;;5.60;4.20;;;;;;;;;;5074159;28;20216;-62
2022/08/22 03:40:04;;;;;;;6.13;4.30;;;;;;;;;;5079458;28;20221;-62
2022/08/22 03:42:40;;;;;;;4.60;4.20;;;;;;;;;;5007460;28;20298;-62
2022/08/22 03:45:27;;;;;;;6.60;4.33;;;;;;;;;;5016314;28;20208;-62
2022/08/22 03:47:54;;;;;;;6.10;4.27;;;;;;;;;;5057723;28;20198;-61
2022/08/22 03:50:51;;;;;;;4.53;4.13;;;;;;;;;;5077895;28;20225;-61
2022/08/22 03:53:39;;;;;;;4.50;4.10;;;;;;;;;;5021206;28;20209;-61
2022/08/22 03:56:19;;;;;;;8.97;4.03;;;;;;;;;;5069933;28;20205;-62
2022/08/22 03:59:05;;;;;;;4.20;3.80;;;;;;;;;;5064488;28;20273;-61
2022/08/22 04:01:56;;;;;;;5.20;4.17;;;;;;;;;;5064189;28;20226;-62
2022/08/22 04:04:37;;;;;;;4.63;4.23;;;;;;;;;;5072571;28;20210;-63
2022/08/22 04:07:09;;;;;;;4.97;4.33;;;;;;;;;;5056566;28;20256;-60
2022/08/22 04:10:13;;;;;;;6.70;4.57;;;;;;;;;;5061582;28;20289;-61
2022/08/22 04:12:47;;;;;;;5.73;4.50;;;;;;;;;;5065512;28;20205;-62
2022/08/22 04:15:26;;;;;;;7.00;4.53;;;;;;;;;;5061720;28;20213;-62
2022/08/22 04:18:14;;;;;;;5.03;4.30;;;;;;;;;;5057906;28;20227;-62
2022/08/22 04:20:41;;;;;;;9.00;5.00;;;;;;;;;;5062393;28;20217;-60
2022/08/22 04:23:18;;;;;;;6.80;4.77;;;;;;;;;;5057988;28;20544;-61
2022/08/22 04:25:50;;;;;;;8.53;4.77;;;;;;;;;;5058630;28;20258;-60
2022/08/22 04:28:33;;;;;;;5.37;4.23;;;;;;;;;;5061924;28;20205;-62
2022/08/22 04:31:06;;;;;;;6.23;4.80;;;;;;;;;;5073887;28;20249;-61
2022/08/22 04:33:47;;;;;;;7.87;5.77;;;;;;;;;;5045312;28;20273;-60
2022/08/22 04:36:25;;;;;;;9.17;6.00;;;;;;;;;;5052029;28;20206;-62
2022/08/22 04:39:08;;;;;;;10.93;6.87;;;;;;;;;;5046523;28;20229;-61
2022/08/22 04:41:47;;;;;;;14.67;8.80;;;;;;;;;;5048051;28;20229;-62
2022/08/22 04:44:26;;;;;;;18.60;10.10;;;;;;;;;;5052406;28;20212;-63
2022/08/22 04:46:57;;;;;;;18.77;10.60;;;;;;;;;;5048010;28;20202;-63
2022/08/22 04:49:28;;;;;;;19.50;9.53;;;;;;;;;;5064512;28;20201;-63
2022/08/22 04:52:19;;;;;;;11.30;8.10;;;;;;;;;;5063866;28;20702;-63
2022/08/22 04:54:57;;;;;;;12.30;7.90;;;;;;;;;;5056720;28;20610;-62
2022/08/22 04:57:37;;;;;;;13.07;8.80;;;;;;;;;;5072555;28;20259;-63
2022/08/22 05:00:07;;;;;;;16.33;8.93;;;;;;;;;;5067319;28;21015;-63
2022/08/22 05:02:36;;;;;;;11.93;7.90;;;;;;;;;;5050810;28;20208;-63
2022/08/22 05:05:40;;;;;;;13.93;9.30;;;;;;;;;;5048931;28;20215;-63
2022/08/22 05:08:11;;;;;;;13.70;9.17;;;;;;;;;;4968260;28;20715;-62
2022/08/22 05:10:41;;;;;;;11.27;8.43;;;;;;;;;;5054733;28;20999;-61
2022/08/22 05:13:11;;;;;;;9.93;7.70;;;;;;;;;;5045968;28;20209;-61
2022/08/22 05:15:42;;;;;;;12.97;8.00;;;;;;;;;;5049166;28;21031;-62
2022/08/22 05:18:16;;;;;;;13.50;7.27;;;;;;;;;;5059126;28;22517;-61
2022/08/22 05:20:45;;;;;;;11.77;7.20;;;;;;;;;;5044995;28;20225;-63
2022/08/22 05:23:23;;;;;;;10.13;7.33;;;;;;;;;;5047652;28;20207;-61
2022/08/22 05:25:52;;;;;;;14.33;7.40;;;;;;;;;;5051010;28;20197;-61
2022/08/22 05:28:35;;;;;;;14.93;6.70;;;;;;;;;;5045825;28;20255;-61
2022/08/22 05:31:05;;;;;;;11.80;6.80;;;;;;;;;;5062023;28;20241;-61
2022/08/22 05:33:36;;;;;;;13.20;7.90;;;;;;;;;;5047452;28;20924;-60
2022/08/22 05:36:05;;;;;;;12.23;6.97;;;;;;;;;;5049110;28;20208;-61
2022/08/22 05:38:35;;;;;;;11.67;6.80;;;;;;;;;;5038390;28;20984;-63
2022/08/22 05:41:08;;;;;;;8.90;6.57;;;;;;;;;;5051409;28;20263;-63
2022/08/22 05:43:41;;;;;;;9.17;6.67;;;;;;;;;;5040865;28;22743;-62
2022/08/22 05:46:11;;;;;;;8.82;6.35;;;;;;;;;;5041318;28;20213;-61
2022/08/22 05:48:41;;;;;;;8.93;6.22;;;;;;;;;;5042915;28;20691;-63
2022/08/22 05:51:24;;;;;;;9.27;6.40;;;;;;;;;;5046121;28;20233;-63
2022/08/22 05:53:56;;;;;;;8.05;6.10;;;;;;;;;;5046363;28;20737;-63
2022/08/22 05:56:38;;;;;;;7.53;5.60;;;;;;;;;;5042966;28;20204;-62
2022/08/22 05:59:11;;;;;;;6.32;5.50;;;;;;;;;;5051169;28;20239;-61
2022/08/22 06:01:50;;;;;;;9.55;5.75;;;;;;;;;;5062332;28;20229;-63
2022/08/22 06:04:36;;;;;;;8.50;5.57;;;;;;;;;;5046836;28;20205;-60
2022/08/22 06:07:07;;;;;;;7.25;5.60;;;;;;;;;;5050206;28;20286;-62
2022/08/22 06:09:43;;;;;;;9.52;6.07;;;;;;;;;;5049604;28;20213;-63
2022/08/22 06:12:14;;;;;;;10.20;5.72;;;;;;;;;;5047123;28;20209;-62
2022/08/22 06:14:57;;;;;;;9.88;6.38;;;;;;;;;;5049848;28;20208;-61
2022/08/22 06:17:26;;;;;;;9.05;7.25;;;;;;;;;;5050556;28;20727;-61
2022/08/22 06:19:54;;;;;;;8.95;7.22;;;;;;;;;;5060233;28;20916;-61
2022/08/22 06:22:24;;;;;;;8.98;7.70;;;;;;;;;;5085503;28;20208;-61
2022/08/22 06:24:55;;;;;;;7.53;5.70;;;;;;;;;;5079768;28;20666;-60
2022/08/22 06:27:25;;;;;;;7.03;6.28;;;;;;;;;;5054461;28;20250;-62
2022/08/22 06:29:59;;;;;;;8.10;4.72;;;;;;;;;;5057898;28;20621;-62
2022/08/22 06:32:28;;;;;;;5.30;4.80;;;;;;;;;;5060000;28;20555;-62
2022/08/22 06:36:29;;;;;;;6.28;4.43;;;;;;;;;;5063182;28;20258;-62
2022/08/22 06:38:19;;;;;;;4.40;4.00;;;;;;;;;;5078219;28;20212;-63
2022/08/22 06:40:47;;;;;;;4.53;3.95;;;;;;;;;;5056255;28;20220;-63
2022/08/22 06:43:14;;;;;;;5.53;4.13;;;;;;;;;;5053638;28;20262;-61
2022/08/22 06:45:42;;;;;;;7.43;3.72;;;;;;;;;;5059179;28;20243;-61
2022/08/22 06:48:09;;;;;;;5.10;4.18;;;;;;;;;;5057809;28;20307;-61
2022/08/22 06:50:38;;;;;;;9.27;7.93;;;;;;;;;;5056526;28;20727;-61
2022/08/22 06:53:15;;;;;;;5.60;4.63;;;;;;;;;;5062089;28;20266;-62
2022/08/22 06:55:53;;;;;;;5.95;3.85;;;;;;;;;;5057328;28;20582;-61
2022/08/22 06:58:24;;;;;;;3.67;3.38;;;;;;;;;;5062037;28;20219;-61
2022/08/22 07:01:00;;;;;;;4.40;3.90;;;;;;;;;;5056302;28;21031;-63
2022/08/22 07:03:44;;;;;;;6.00;4.00;;;;;;;;;;5047761;28;20263;-63
2022/08/22 07:06:23;;;;;;;4.35;3.90;;;;;;;;;;5054986;28;20208;-62
2022/08/22 07:08:54;;;;;;;4.05;3.65;;;;;;;;;;5064822;28;20208;-64
2022/08/22 07:11:34;;;;;;;4.00;3.47;;;;;;;;;;5060728;28;20232;-61
2022/08/22 07:14:03;;;;;;;4.47;3.70;;;;;;;;;;5076912;28;20204;-63
2022/08/22 07:16:40;;;;;;;4.20;3.70;;;;;;;;;;5058296;28;20205;-62
2022/08/22 07:19:09;;;;;;;6.03;3.72;;;;;;;;;;5043061;28;21195;-61
2022/08/22 07:21:46;;;;;;;6.68;4.25;;;;;;;;;;5056331;28;20246;-60
2022/08/22 07:24:20;;;;;;;4.75;3.45;;;;;;;;;;5061541;28;20209;-61
2022/08/22 07:27:07;;;;;;;4.93;3.90;;;;;;;;;;5064317;28;20413;-61
2022/08/22 07:29:44;;;;;;;3.90;3.50;;;;;;;;;;5054866;28;20208;-61
2022/08/22 07:32:16;;;;;;;7.55;4.20;;;;;;;;;;5058170;28;20299;-63
2022/08/22 07:35:02;;;;;;;6.82;3.80;;;;;;;;;;5056152;28;20201;-62
2022/08/22 07:37:45;;;;;;;4.45;3.72;;;;;;;;;;5057452;28;20246;-62
2022/08/22 07:40:19;;;;;;;4.47;3.35;;;;;;;;;;5056698;28;20275;-61
2022/08/22 07:42:51;;;;;;;5.30;3.90;;;;;;;;;;5062491;28;20212;-61
2022/08/22 07:45:26;;;;;;;4.75;3.55;;;;;;;;;;5054242;28;20323;-63
2022/08/22 07:48:06;;;;;;;5.75;3.33;;;;;;;;;;5061751;28;20799;-61
2022/08/22 07:50:48;;;;;;;7.57;3.38;;;;;;;;;;5079322;28;20217;-62
2022/08/22 07:53:19;;;;;;;3.72;2.95;;;;;;;;;;5079336;28;20273;-62
2022/08/22 07:55:47;;;;;;;6.70;3.20;;;;;;;;;;5076153;28;20254;-63
2022/08/22 07:58:16;;;;;;;4.50;3.33;;;;;;;;;;5063028;28;20258;-64
2022/08/22 08:00:45;;;;;;;4.68;3.33;;;;;;;;;;5059732;28;20254;-62
2022/08/22 08:03:13;;;;;;;6.13;3.58;;;;;;;;;;5061895;28;20201;-61
2022/08/22 08:05:43;;;;;;;4.22;3.30;;;;;;;;;;5079211;28;20269;-63
2022/08/22 08:08:30;;;;;;;4.78;3.10;;;;;;;;;;5054921;28;20205;-61
2022/08/22 08:10:59;;;;;;;5.53;3.85;;;;;;;;;;5063973;28;20232;-61
2022/08/22 08:13:34;;;;;;;3.92;3.15;;;;;;;;;;5065851;28;20213;-62
2022/08/22 08:16:05;;;;;;;5.53;3.17;;;;;;;;;;5065601;28;20201;-61
2022/08/22 08:18:34;;;;;;;3.13;2.83;;;;;;;;;;5058845;28;20229;-61
2022/08/22 08:21:04;;;;;;;5.57;3.38;;;;;;;;;;5063327;28;20762;-62
2022/08/22 08:23:36;;;;;;;5.32;3.20;;;;;;;;;;5061497;28;20225;-61
2022/08/22 08:26:08;;;;;;;6.28;3.30;;;;;;;;;;5063292;28;20197;-61
2022/08/22 08:28:45;;;;;;;3.10;2.75;;;;;;;;;;5062343;28;20258;-63
2022/08/22 08:31:19;;;;;;;4.53;3.40;;;;;;;;;;5057556;28;20221;-61
2022/08/22 08:33:49;;;;;;;4.97;3.95;;;;;;;;;;5062811;28;20200;-61
2022/08/22 08:36:28;;;;;;;4.13;3.25;;;;;;;;;;5050187;28;20205;-63
2022/08/22 08:39:02;;;;;;;3.55;2.75;;;;;;;;;;5063747;28;20236;-60
2022/08/22 08:41:35;;;;;;;5.03;3.45;;;;;;;;;;5059151;28;20227;-61
2022/08/22 08:44:09;;;;;;;3.75;3.05;;;;;;;;;;5062291;28;20271;-61
2022/08/22 08:46:43;;;;;;;4.95;3.03;;;;;;;;;;5062306;28;20697;-61
2022/08/22 08:49:24;;;;;;;5.35;3.22;;;;;;;;;;5063092;28;20205;-61
2022/08/22 08:51:54;;;;;;;5.95;3.30;;;;;;;;;;5057952;28;20220;-63
2022/08/22 08:54:21;;;;;;;4.07;2.88;;;;;;;;;;5059565;28;20263;-61
2022/08/22 08:56:55;;;;;;;5.80;2.92;;;;;;;;;;5059415;28;20212;-62
2022/08/22 08:59:34;;;;;;;5.28;3.17;;;;;;;;;;5056323;28;20221;-61
2022/08/22 09:02:22;;;;;;;3.97;3.03;;;;;;;;;;5075951;28;20200;-61
2022/08/22 09:04:53;;;;;;;3.65;3.15;;;;;;;;;;5055168;28;20212;-61
2022/08/22 09:07:37;;;;;;;4.45;3.03;;;;;;;;;;5064028;28;20209;-62
2022/08/22 09:10:05;;;;;;;3.50;3.20;;;;;;;;;;5062571;28;20254;-61
2022/08/22 09:12:51;;;;;;;3.47;2.95;;;;;;;;;;5059874;28;20216;-61
2022/08/22 09:15:55;;;;;;;5.28;3.42;;;;;;;;;;5059827;28;20208;-61
2022/08/22 09:18:38;;;;;;;3.30;3.00;;;;;;;;;;5063652;28;20623;-61
2022/08/22 09:21:12;;;;;;;3.00;2.70;;;;;;;;;;5060190;28;20223;-61
2022/08/22 09:24:09;;;;;;;5.07;3.08;;;;;;;;;;5065392;28;20201;-63
2022/08/22 09:26:46;;;;;;;3.13;2.92;;;;;;;;;;5075612;28;20624;-62
2022/08/22 09:29:14;;;;;;;3.67;3.38;;;;;;;;;;5061154;28;20208;-62
2022/08/22 09:32:07;;;;;;;3.85;3.40;;;;;;;;;;5059432;28;20221;-60
2022/08/22 09:34:55;;;;;;;3.28;3.08;;;;;;;;;;5071456;28;20228;-61
2022/08/22 09:37:41;;;;;;;4.18;3.10;;;;;;;;;;5051195;28;20223;-61
2022/08/22 09:40:19;;;;;;;4.97;3.30;;;;;;;;;;5059928;28;20598;-61
2022/08/22 09:42:51;;;;;;;5.30;2.72;;;;;;;;;;5056339;28;20285;-61
2022/08/22 09:45:32;;;;;;;3.55;3.08;;;;;;;;;;5063549;28;20201;-61
2022/08/22 09:48:04;;;;;;;3.28;3.03;;;;;;;;;;5056361;28;20201;-61
2022/08/22 09:50:45;;;;;;;4.72;3.53;;;;;;;;;;5061562;28;20221;-60
2022/08/22 09:53:15;;;;;;;3.60;3.30;;;;;;;;;;5062841;28;20586;-62
2022/08/22 09:55:43;;;;;;;3.95;3.10;;;;;;;;;;5064306;28;20212;-61
2022/08/22 09:58:19;;;;;;;3.22;2.92;;;;;;;;;;5079719;28;20233;-61
2022/08/22 10:01:08;;;;;;;5.63;3.28;;;;;;;;;;5063287;28;20315;-61
2022/08/22 10:03:44;;;;;;;4.63;3.13;;;;;;;;;;5054704;28;21125;-61
2022/08/22 10:06:21;;;;;;;4.65;3.33;;;;;;;;;;5063655;28;20677;-61
2022/08/22 10:09:07;;;;;;;3.65;3.35;;;;;;;;;;5066243;28;20231;-61
2022/08/22 10:11:43;;;;;;;4.18;3.33;;;;;;;;;;5077398;28;20217;-61
2022/08/22 10:14:27;;;;;;;4.60;3.60;;;;;;;;;;5052668;28;20650;-61
2022/08/22 10:16:55;;;;;;;3.50;3.15;;;;;;;;;;5061057;28;20608;-61
2022/08/22 10:19:28;;;;;;;4.63;3.50;;;;;;;;;;5064640;28;20225;-61
2022/08/22 10:22:14;;;;;;;4.40;3.20;;;;;;;;;;5055249;28;20363;-62
2022/08/22 10:25:01;;;;;;;3.53;3.15;;;;;;;;;;5075182;28;20220;-61
2022/08/22 10:27:47;;;;;;;3.03;2.65;;;;;;;;;;5073802;28;20239;-62
2022/08/22 10:30:19;;;;;;;4.25;3.22;;;;;;;;;;5055624;28;20598;-62
2022/08/22 10:32:56;;;;;;;3.08;2.78;;;;;;;;;;5049402;28;20665;-61
2022/08/22 10:35:27;;;;;;;3.40;3.10;;;;;;;;;;5062353;28;20589;-61
2022/08/22 10:38:06;;;;;;;3.08;2.67;;;;;;;;;;5066722;28;20261;-61
2022/08/22 10:41:00;;;;;;;3.60;3.30;;;;;;;;;;5065494;28;20315;-61
2022/08/22 10:43:39;;;;;;;3.65;2.63;;;;;;;;;;5039918;28;21123;-61
2022/08/22 10:46:12;;;;;;;2.70;2.50;;;;;;;;;;5043260;28;20215;-63
2022/08/22 10:48:49;;;;;;;3.20;2.90;;;;;;;;;;5050966;28;20201;-63
2022/08/22 10:51:19;;;;;;;3.45;2.88;;;;;;;;;;5043042;28;20224;-62
2022/08/22 10:53:55;;;;;;;3.30;2.75;;;;;;;;;;5044664;28;20213;-62
2022/08/22 10:56:24;;;;;;;3.35;2.97;;;;;;;;;;5044270;28;20216;-63
2022/08/22 10:59:00;;;;;;;4.32;3.15;;;;;;;;;;5058444;28;20351;-62
2022/08/22 11:01:34;;;;;;;3.13;2.80;;;;;;;;;;5059836;28;20303;-62
2022/08/22 11:04:10;;;;;;;5.80;3.00;;;;;;;;;;5053057;28;20772;-62
2022/08/22 11:06:54;;;;;;;3.30;3.00;;;;;;;;;;5071297;28;20201;-61
2022/08/22 11:09:49;;;;;;;4.43;3.10;;;;;;;;;;5047549;28;20200;-61
2022/08/22 11:12:24;;;;;;;3.92;2.70;;;;;;;;;;5045873;28;20733;-63
2022/08/22 11:15:18;;;;;;;3.20;2.67;;;;;;;;;;5050565;28;20226;-62
2022/08/22 11:18:26;;;;;;;3.00;2.70;;;;;;;;;;5077177;28;20216;-63
2022/08/22 11:21:00;;;;;;;4.07;3.08;;;;;;;;;;5048086;28;20236;-62
2022/08/22 11:23:38;;;;;;;3.83;3.03;;;;;;;;;;5049547;28;20725;-62
2022/08/22 11:26:06;;;;;;;3.05;2.75;;;;;;;;;;5052656;28;20206;-63
2022/08/22 11:28:47;;;;;;;3.22;2.80;;;;;;;;;;5047547;28;20204;-61
2022/08/22 11:31:38;;;;;;;4.47;3.45;;;;;;;;;;5049177;28;20251;-61
2022/08/22 11:34:33;;;;;;;5.30;3.10;;;;;;;;;;5049183;28;20209;-61
2022/08/22 11:37:05;;;;;;;4.53;3.20;;;;;;;;;;5022681;28;20683;-63
2022/08/22 11:39:57;;;;;;;3.20;2.90;;;;;;;;;;5053000;28;20248;-61
2022/08/22 11:42:25;;;;;;;4.18;2.97;;;;;;;;;;5049487;28;20323;-61
2022/08/22 11:44:56;;;;;;;5.13;2.95;;;;;;;;;;5049549;28;20219;-61
2022/08/22 11:47:27;;;;;;;3.75;3.20;;;;;;;;;;5046497;28;20202;-61
2022/08/22 11:49:57;;;;;;;3.13;2.80;;;;;;;;;;5048100;28;20219;-62
2022/08/22 11:52:57;;;;;;;3.10;2.78;;;;;;;;;;5045812;28;21587;-63
2022/08/22 11:55:48;;;;;;;3.45;2.92;;;;;;;;;;5022760;28;20270;-61
2022/08/22 11:58:22;;;;;;;3.42;3.08;;;;;;;;;;5052412;28;20202;-63
2022/08/22 12:00:58;;;;;;;3.60;3.30;;;;;;;;;;5048666;28;20306;-64
2022/08/22 12:03:25;;;;;;;4.72;3.25;;;;;;;;;;5050930;28;20213;-63
2022/08/22 12:06:00;;;;;;;2.90;2.58;;;;;;;;;;5050027;28;20686;-63
2022/08/22 12:08:34;;;;;;;2.70;2.50;;;;;;;;;;5050207;28;20792;-62
2022/08/22 12:11:15;;;;;;;5.35;3.28;;;;;;;;;;5066183;28;20236;-62
2022/08/22 12:14:01;;;;;;;3.08;2.88;;;;;;;;;;5055035;28;20670;-63
2022/08/22 12:16:41;;;;;;;3.53;3.10;;;;;;;;;;5068473;28;20359;-61
2022/08/22 12:19:19;;;;;;;3.28;2.97;;;;;;;;;;5051884;28;20201;-61
2022/08/22 12:22:07;;;;;;;4.70;2.83;;;;;;;;;;5054945;28;20267;-62
2022/08/22 12:24:38;;;;;;;3.92;3.13;;;;;;;;;;5054560;28;20209;-63
2022/08/22 12:27:23;;;;;;;3.35;2.80;;;;;;;;;;5053559;28;20229;-62
2022/08/22 12:29:55;;;;;;;4.32;2.85;;;;;;;;;;5049053;28;20885;-61
2022/08/22 12:32:33;;;;;;;3.42;3.13;;;;;;;;;;5053939;28;20220;-60
2022/08/22 12:35:19;;;;;;;4.00;3.13;;;;;;;;;;5049873;28;20835;-61
2022/08/22 12:37:56;;;;;;;3.35;3.03;;;;;;;;;;5052246;28;20201;-61
2022/08/22 12:40:30;;;;;;;3.20;3.00;;;;;;;;;;5050553;28;20255;-63
2022/08/22 12:43:19;;;;;;;5.60;3.33;;;;;;;;;;5049152;28;20209;-61
2022/08/22 12:46:10;;;;;;;5.13;3.20;;;;;;;;;;5056919;28;20600;-63
2022/08/22 12:48:58;;;;;;;3.10;2.90;;;;;;;;;;5063849;28;20205;-63
2022/08/22 12:51:25;;;;;;;3.22;2.92;;;;;;;;;;5073661;28;20226;-63
2022/08/22 12:54:13;;;;;;;3.63;3.33;;;;;;;;;;5062580;28;20494;-62
2022/08/22 12:56:50;;;;;;;4.05;3.65;;;;;;;;;;5052815;28;20208;-60
2022/08/22 12:59:17;;;;;;;7.05;3.20;;;;;;;;;;5045472;28;20205;-63
2022/08/22 13:01:48;;;;;;;3.25;2.95;;;;;;;;;;5044448;28;20686;-63
2022/08/22 13:04:18;;;;;;;4.35;3.20;;;;;;;;;;5064273;28;20205;-61
2022/08/22 13:07:04;;;;;;;2.90;2.70;;;;;;;;;;5051448;28;20250;-62
2022/08/22 13:09:46;;;;;;;4.43;2.88;;;;;;;;;;5051960;28;20278;-62
2022/08/22 13:12:19;;;;;;;4.28;3.28;;;;;;;;;;5053359;28;20236;-61
2022/08/22 13:14:49;;;;;;;4.90;2.95;;;;;;;;;;5052052;28;20213;-61
2022/08/22 13:17:18;;;;;;;3.70;3.00;;;;;;;;;;5044976;28;20211;-61
2022/08/22 13:19:54;;;;;;;3.33;3.03;;;;;;;;;;5046623;28;20220;-61
2022/08/22 13:22:27;;;;;;;3.30;2.88;;;;;;;;;;5050315;28;20217;-61
2022/08/22 13:25:02;;;;;;;3.38;2.88;;;;;;;;;;5031580;28;20699;-61
2022/08/22 13:27:51;;;;;;;4.20;3.05;;;;;;;;;;5047282;28;20200;-61
2022/08/22 13:30:21;;;;;;;5.05;3.10;;;;;;;;;;5062722;28;20241;-62
2022/08/22 13:32:52;;;;;;;3.22;2.92;;;;;;;;;;5048702;28;20209;-63
2022/08/22 13:35:30;;;;;;;3.25;3.00;;;;;;;;;;5050026;28;20217;-62
2022/08/22 13:38:04;;;;;;;3.45;3.22;;;;;;;;;;5043184;28;20213;-62
2022/08/22 13:40:32;;;;;;;3.58;3.22;;;;;;;;;;5062819;28;20240;-62
2022/08/22 13:43:06;;;;;;;3.28;3.00;;;;;;;;;;5049363;28;20525;-60
2022/08/22 13:45:35;;;;;;;3.15;2.85;;;;;;;;;;5063428;28;20662;-63
2022/08/22 13:48:07;;;;;;;3.55;3.25;;;;;;;;;;5047813;28;20231;-61
2022/08/22 13:50:44;;;;;;;4.35;2.88;;;;;;;;;;5051184;28;20246;-62
2022/08/22 13:53:40;;;;;;;6.72;3.33;;;;;;;;;;5047819;28;20265;-61
2022/08/22 13:56:30;;;;;;;3.28;2.97;;;;;;;;;;5049643;28;20243;-61
2022/08/22 13:58:59;;;;;;;3.75;3.30;;;;;;;;;;5049029;28;20209;-61
2022/08/22 14:01:46;;;;;;;3.72;3.35;;;;;;;;;;5044890;28;20248;-62
2022/08/22 14:04:24;;;;;;;3.65;3.35;;;;;;;;;;5048183;28;20215;-62
2022/08/22 14:07:03;;;;;;;4.68;3.30;;;;;;;;;;5068376;28;20571;-62
2022/08/22 14:09:40;;;;;;;3.60;3.30;;;;;;;;;;5045407;28;20811;-64
2022/08/22 14:12:11;;;;;;;3.67;3.38;;;;;;;;;;5047288;28;20205;-63
2022/08/22 14:14:44;;;;;;;5.88;4.47;;;;;;;;;;5045327;28;20211;-62
2022/08/22 14:17:22;;;;;;;3.70;3.40;;;;;;;;;;5064108;28;20202;-61
2022/08/22 14:19:57;;;;;;;3.95;3.22;;;;;;;;;;5061500;28;20238;-62
2022/08/22 14:22:30;;;;;;;3.58;3.28;;;;;;;;;;5071477;28;20208;-63
2022/08/22 14:25:07;;;;;;;3.78;3.15;;;;;;;;;;5075357;28;20222;-63
2022/08/22 14:27:37;;;;;;;3.42;3.13;;;;;;;;;;5058246;28;20315;-63
2022/08/22 14:30:12;;;;;;;3.97;3.03;;;;;;;;;;5061152;28;20278;-62
2022/08/22 14:32:49;;;;;;;5.22;3.20;;;;;;;;;;5058504;28;20204;-60
2022/08/22 14:35:19;;;;;;;3.47;3.17;;;;;;;;;;5074890;28;20207;-62
2022/08/22 14:38:17;;;;;;;3.60;3.30;;;;;;;;;;5060513;28;20279;-62
2022/08/22 14:40:46;;;;;;;3.33;3.03;;;;;;;;;;5053804;28;21598;-62
2022/08/22 14:43:34;;;;;;;3.72;3.22;;;;;;;;;;5058391;28;20219;-62
2022/08/22 14:46:08;;;;;;;4.50;3.00;;;;;;;;;;5073677;28;20670;-62
2022/08/22 14:48:57;;;;;;;3.50;3.15;;;;;;;;;;5050026;28;20327;-62
2022/08/22 14:51:25;;;;;;;4.03;3.20;;;;;;;;;;5042759;28;20228;-63
2022/08/22 14:53:52;;;;;;;3.55;3.25;;;;;;;;;;5056082;28;20220;-62
2022/08/22 14:56:22;;;;;;;3.53;2.97;;;;;;;;;;5077892;28;20584;-61
2022/08/22 14:58:53;;;;;;;3.20;2.90;;;;;;;;;;5055588;28;20216;-61
2022/08/22 15:01:22;;;;;;;4.72;3.70;;;;;;;;;;5073630;28;20233;-62
2022/08/22 15:03:54;;;;;;;3.47;3.17;;;;;;;;;;5063438;28;20586;-61
2022/08/22 15:06:34;;;;;;;3.53;2.90;;;;;;;;;;5054831;28;21917;-62
2022/08/22 15:09:23;;;;;;;3.95;3.40;;;;;;;;;;5053262;28;20731;-63
2022/08/22 15:11:51;;;;;;;3.60;3.28;;;;;;;;;;5060814;28;20753;-62
2022/08/22 15:14:49;;;;;;;4.90;3.20;;;;;;;;;;5056951;28;20731;-61
2022/08/22 15:17:51;;;;;;;6.15;3.38;;;;;;;;;;5034199;28;21466;-62
2022/08/22 15:20:22;;;;;;;3.78;3.20;;;;;;;;;;5019983;28;20236;-63
2022/08/22 15:22:55;;;;;;;5.60;3.90;;;;;;;;;;5060486;28;20220;-62
2022/08/22 15:25:33;;;;;;;4.95;2.95;;;;;;;;;;5053739;28;20283;-61
2022/08/22 15:28:07;;;;;;;3.47;3.10;;;;;;;;;;5074957;28;20209;-61
2022/08/22 15:30:45;;;;;;;3.60;3.30;;;;;;;;;;5060951;28;20227;-60
2022/08/22 15:33:16;;;;;;;3.88;3.10;;;;;;;;;;5057433;28;20213;-63
2022/08/22 15:35:45;;;;;;;4.95;2.78;;;;;;;;;;5063374;28;20201;-61
2022/08/22 15:38:25;;;;;;;6.63;3.22;;;;;;;;;;5062939;28;20215;-60
2022/08/22 15:40:54;;;;;;;4.00;2.85;;;;;;;;;;5077072;28;20716;-62
2022/08/22 15:43:32;;;;;;;3.15;2.85;;;;;;;;;;5053664;28;20212;-63
2022/08/22 15:46:20;;;;;;;3.30;3.03;;;;;;;;;;5063071;28;20213;-61